Close

Questo sito utlizza cookie. Può leggere come li usiamo nella nostra Privacy Policy.

Ronchi Tower
Ronchi Tower

From Facebook

METAR & TAF

2022/08/14 14:50 LIPQ 141450Z AUTO 20008KT 180V240 9999 NCD 29/14 Q1008
2022/08/14 12:21 TAF LIPQ 141100Z 1412/1512 21010KT 9999 FEW070 BECMG 1416/1418 VRB05KT BECMG 1509/1511 21010KT
2022/08/14 14:50 LIPZ 141450Z 17008KT 140V200 CAVOK 28/16 Q1008 NOSIG
2022/08/14 12:21 TAF LIPZ 141100Z 1412/1518 16012KT 9999 SCT070 BECMG 1420/1422 04008KT BECMG 1511/1513 14010KT
2022/08/14 14:50 LIPH 141450Z 24007KT 200V270 CAVOK 32/10 Q1007
2022/08/14 12:26 TAF LIPH 141100Z 1412/1512 21010KT 9999 SCT070 BECMG 1416/1418 VRB05KT
2022/08/14 14:50 LIRF 141450Z 25009KT 220V280 CAVOK 29/16 Q1009 NOSIG
2022/08/14 12:24 TAF LIRF 141100Z 1412/1518 26010KT CAVOK BECMG 1418/1420 VRB05KT BECMG 1508/1511 16014KT TEMPO 1512/1516 TSRA
2022/08/14 14:50 LIML 141450Z 23006KT 170V280 9999 FEW015 31/13 Q1008 NOSIG
2022/08/14 12:21 TAF LIML 141100Z 1412/1512 24010KT 9999 FEW100 BECMG 1420/1422 VRB05KT TEMPO 1506/1510 TSRA BECMG 1510/1512 24010KT
2022/08/14 15:20 EDDM 141520Z AUTO 04006KT 350V110 CAVOK 29/10 Q1008 NOSIG
2022/08/14 12:27 TAF EDDM 141100Z 1412/1518 10007KT CAVOK BECMG 1419/1421 VRB03KT TEMPO 1500/1504 24005KT BECMG 1504/1506 25008KT PROB30 TEMPO 1507/1509 26013KT SHRA SCT050CB PROB30 TEMPO 1514/1516 26015G25KT SHRA SCT050CB
2022/08/14 15:20 EGSS 141520Z 15010KT 120V190 CAVOK 31/09 Q1005
2022/08/14 14:26 TAF AMD EGSS 141420Z 1414/1518 13012KT CAVOK PROB40 TEMPO 1414/1421 VRB03KT BECMG 1500/1503 VRB03KT PROB30 TEMPO 1512/1518 4000 +SHRA TSGS SCT045CB
2022/08/14 15:20 EDDF 141520Z 12006KT 050V190 CAVOK 32/10 Q1005 NOSIG
2022/08/14 12:28 TAF EDDF 141100Z 1412/1518 10009KT CAVOK BECMG 1416/1418 20004KT BECMG 1422/1424 22009KT TEMPO 1506/1509 BKN020 PROB30 TEMPO 1514/1517 20015G30KT TSRA BKN065CB

FlightRadar24

Radar Meteo

Traffic data

Agosto 2018

Passeggeri: 63892-12,9% (rank: 23)
Nazionali 34490 -19,8%
Internazionali 29193 -3,0%

Movimenti: 1307+11,7% (rank: 24)
Tot commerciale 556 -7,2%
Aviazione generale 751 +31,5%

Cargo (tons): 20,6+62,5% (rank: 21)

Gennaio - Agosto 2018

Passeggeri: 507438-3,5% (rank: 23)
Nazionali 322655 -4,9%
Internazionali 182927 -0,7%

Movimenti: 10366-4,25 (rank: 22)
Tot commerciale 5328 -11,0%
Aviazione generale 5038 +4,2%

Cargo (tons): 299,2+61,9% (rank: 20)

Photo

Reims F152 II
Reims F152 II
Distinct views: 33
Reims F152 II
Reims F152 II
Distinct views: 126
Reims F152 II
Reims F152 II
Distinct views: 321
Boeing 737-800
Boeing 737-800
Total views: 10548